Terminal Aerodrome Forecast
Issued by NWS Dallas/Fort Worth, TX

Home | Current Version | Previous Version | Text Only | Print | Product List | Glossary On
Versions: 1 2 3 4 5 6 7 8 9 10 11 12 13 14 15 16 17 18 19 20 21 22 23 24 25 26 27 28 29 30 31 32 33 34
000
FTUS44 KFWD 220719 AAA
TAFACT
TAF AMD
KACT 220719Z 2207/2306 06007KT 4SM BR OVC006
      TEMPO 2207/2211 2SM BR OVC004
     FM221200 07005KT 5SM BR VCSH BKN006
     FM221700 09007KT P6SM OVC015
     FM222200 12008KT P6SM OVC025=

USA.gov is the U.S. government's official web portal to all federal, state and local government web resources and services.